sensor_id;sensor_type;location;lat;lon;timestamp;temperature;humidity
63771;DHT22;60282;43.862;18.430;2023-02-02T00:00:57;0.80;99.90
63771;DHT22;60282;43.862;18.430;2023-02-02T00:03:29;0.80;99.90
63771;DHT22;60282;43.862;18.430;2023-02-02T00:06:00;0.90;99.90
63771;DHT22;60282;43.862;18.430;2023-02-02T00:08:29;0.70;99.90
63771;DHT22;60282;43.862;18.430;2023-02-02T00:10:58;0.90;99.90
63771;DHT22;60282;43.862;18.430;2023-02-02T00:21:35;-0.60;99.90
63771;DHT22;60282;43.862;18.430;2023-02-02T00:24:04;0.70;99.90
63771;DHT22;60282;43.862;18.430;2023-02-02T00:26:32;0.10;99.90
63771;DHT22;60282;43.862;18.430;2023-02-02T00:29:02;0.60;99.90
63771;DHT22;60282;43.862;18.430;2023-02-02T00:31:28;0.50;99.90
63771;DHT22;60282;43.862;18.430;2023-02-02T00:33:57;0.80;99.90
63771;DHT22;60282;43.862;18.430;2023-02-02T00:36:24;0.60;99.90
63771;DHT22;60282;43.862;18.430;2023-02-02T00:59:48;0.50;99.90
63771;DHT22;60282;43.862;18.430;2023-02-02T01:02:16;0.60;99.90
63771;DHT22;60282;43.862;18.430;2023-02-02T01:04:41;0.60;99.90
63771;DHT22;60282;43.862;18.430;2023-02-02T01:07:07;0.60;99.90
63771;DHT22;60282;43.862;18.430;2023-02-02T01:09:33;0.60;99.90
63771;DHT22;60282;43.862;18.430;2023-02-02T01:11:58;0.60;99.90
63771;DHT22;60282;43.862;18.430;2023-02-02T01:14:24;0.70;99.90
63771;DHT22;60282;43.862;18.430;2023-02-02T01:16:49;0.70;99.90
63771;DHT22;60282;43.862;18.430;2023-02-02T01:19:23;0.70;99.90
63771;DHT22;60282;43.862;18.430;2023-02-02T01:21:54;0.00;99.90
63771;DHT22;60282;43.862;18.430;2023-02-02T01:24:27;0.70;99.90
63771;DHT22;60282;43.862;18.430;2023-02-02T01:26:53;0.60;99.90
63771;DHT22;60282;43.862;18.430;2023-02-02T01:29:21;0.60;99.90
63771;DHT22;60282;43.862;18.430;2023-02-02T01:31:51;1.20;99.90
63771;DHT22;60282;43.862;18.430;2023-02-02T01:34:47;-0.90;99.90
63771;DHT22;60282;43.862;18.430;2023-02-02T01:37:13;-0.10;99.90
63771;DHT22;60282;43.862;18.430;2023-02-02T01:39:46;0.60;99.90
63771;DHT22;60282;43.862;18.430;2023-02-02T01:42:13;0.60;99.90
63771;DHT22;60282;43.862;18.430;2023-02-02T01:47:56;2.60;99.90
63771;DHT22;60282;43.862;18.430;2023-02-02T01:50:25;0.60;99.90
63771;DHT22;60282;43.862;18.430;2023-02-02T01:53:27;0.70;99.90
63771;DHT22;60282;43.862;18.430;2023-02-02T01:56:35;0.60;99.90
63771;DHT22;60282;43.862;18.430;2023-02-02T01:59:03;0.50;99.90
63771;DHT22;60282;43.862;18.430;2023-02-02T02:01:33;0.50;99.90
63771;DHT22;60282;43.862;18.430;2023-02-02T02:04:14;0.50;99.90
63771;DHT22;60282;43.862;18.430;2023-02-02T02:06:40;0.50;99.90
63771;DHT22;60282;43.862;18.430;2023-02-02T02:09:09;0.50;99.90
63771;DHT22;60282;43.862;18.430;2023-02-02T02:11:44;0.40;99.90
63771;DHT22;60282;43.862;18.430;2023-02-02T02:14:33;-0.30;99.90
63771;DHT22;60282;43.862;18.430;2023-02-02T02:34:29;0.10;99.90
63771;DHT22;60282;43.862;18.430;2023-02-02T02:37:11;0.70;99.90
63771;DHT22;60282;43.862;18.430;2023-02-02T02:40:14;0.60;99.90
63771;DHT22;60282;43.862;18.430;2023-02-02T02:43:11;0.60;99.90
63771;DHT22;60282;43.862;18.430;2023-02-02T02:45:49;2.90;99.90
63771;DHT22;60282;43.862;18.430;2023-02-02T02:48:22;0.80;99.90
63771;DHT22;60282;43.862;18.430;2023-02-02T02:51:38;0.30;99.90
63771;DHT22;60282;43.862;18.430;2023-02-02T02:53:51;0.20;99.90
63771;DHT22;60282;43.862;18.430;2023-02-02T02:56:28;-0.30;99.90
63771;DHT22;60282;43.862;18.430;2023-02-02T02:59:03;0.10;99.90
63771;DHT22;60282;43.862;18.430;2023-02-02T03:01:36;0.10;99.90
63771;DHT22;60282;43.862;18.430;2023-02-02T03:07:03;-1.80;99.90
63771;DHT22;60282;43.862;18.430;2023-02-02T03:09:37;-0.10;99.90
63771;DHT22;60282;43.862;18.430;2023-02-02T03:15:58;-0.20;99.90
63771;DHT22;60282;43.862;18.430;2023-02-02T03:19:04;-1.00;99.90
63771;DHT22;60282;43.862;18.430;2023-02-02T03:22:21;-0.40;99.90
63771;DHT22;60282;43.862;18.430;2023-02-02T03:24:47;-0.30;99.90
63771;DHT22;60282;43.862;18.430;2023-02-02T03:27:36;-0.30;99.90
63771;DHT22;60282;43.862;18.430;2023-02-02T03:30:22;-3.50;99.90
63771;DHT22;60282;43.862;18.430;2023-02-02T03:32:48;-0.10;99.90
63771;DHT22;60282;43.862;18.430;2023-02-02T03:35:46;-0.20;99.90
63771;DHT22;60282;43.862;18.430;2023-02-02T03:38:14;-0.60;99.90
63771;DHT22;60282;43.862;18.430;2023-02-02T03:40:40;-0.40;99.90
63771;DHT22;60282;43.862;18.430;2023-02-02T03:43:27;-0.40;99.90
63771;DHT22;60282;43.862;18.430;2023-02-02T03:46:08;-1.90;99.90
63771;DHT22;60282;43.862;18.430;2023-02-02T03:49:15;0.00;99.90
63771;DHT22;60282;43.862;18.430;2023-02-02T03:52:17;-0.40;99.90
63771;DHT22;60282;43.862;18.430;2023-02-02T03:54:44;-0.30;99.90
63771;DHT22;60282;43.862;18.430;2023-02-02T03:57:31;-0.30;99.90
63771;DHT22;60282;43.862;18.430;2023-02-02T04:00:00;0.10;99.90
63771;DHT22;60282;43.862;18.430;2023-02-02T04:02:45;-0.50;99.90
63771;DHT22;60282;43.862;18.430;2023-02-02T04:05:33;-0.20;99.90
63771;DHT22;60282;43.862;18.430;2023-02-02T04:08:44;-0.20;99.90
63771;DHT22;60282;43.862;18.430;2023-02-02T04:11:10;0.20;99.90
63771;DHT22;60282;43.862;18.430;2023-02-02T04:13:56;1.50;99.90
63771;DHT22;60282;43.862;18.430;2023-02-02T04:16:21;-0.10;99.90
63771;DHT22;60282;43.862;18.430;2023-02-02T04:18:50;-0.30;99.90
63771;DHT22;60282;43.862;18.430;2023-02-02T04:21:37;-0.40;99.90
63771;DHT22;60282;43.862;18.430;2023-02-02T04:24:04;-0.30;99.90
63771;DHT22;60282;43.862;18.430;2023-02-02T04:26:30;-0.10;99.90
63771;DHT22;60282;43.862;18.430;2023-02-02T04:28:55;-0.10;99.90
63771;DHT22;60282;43.862;18.430;2023-02-02T04:31:21;0.00;99.90
63771;DHT22;60282;43.862;18.430;2023-02-02T04:33:46;-0.10;99.90
63771;DHT22;60282;43.862;18.430;2023-02-02T04:36:12;-0.10;99.90
63771;DHT22;60282;43.862;18.430;2023-02-02T04:38:38;0.00;99.90
63771;DHT22;60282;43.862;18.430;2023-02-02T04:41:07;0.00;99.90
63771;DHT22;60282;43.862;18.430;2023-02-02T04:43:33;-0.10;99.90
63771;DHT22;60282;43.862;18.430;2023-02-02T04:45:59;-0.10;99.90
63771;DHT22;60282;43.862;18.430;2023-02-02T04:48:28;-0.10;99.90
63771;DHT22;60282;43.862;18.430;2023-02-02T04:51:29;0.00;99.90
63771;DHT22;60282;43.862;18.430;2023-02-02T04:54:26;0.80;99.90
63771;DHT22;60282;43.862;18.430;2023-02-02T04:56:58;-0.30;99.90
63771;DHT22;60282;43.862;18.430;2023-02-02T04:59:27;0.00;99.90
63771;DHT22;60282;43.862;18.430;2023-02-02T05:01:52;0.00;99.90
63771;DHT22;60282;43.862;18.430;2023-02-02T05:04:18;0.00;99.90
63771;DHT22;60282;43.862;18.430;2023-02-02T05:06:43;-0.10;99.90
63771;DHT22;60282;43.862;18.430;2023-02-02T05:09:09;0.10;99.90
63771;DHT22;60282;43.862;18.430;2023-02-02T05:11:35;0.20;99.90
63771;DHT22;60282;43.862;18.430;2023-02-02T05:14:01;0.20;99.90
63771;DHT22;60282;43.862;18.430;2023-02-02T05:16:26;0.30;99.90
63771;DHT22;60282;43.862;18.430;2023-02-02T05:18:54;-2.00;99.90
63771;DHT22;60282;43.862;18.430;2023-02-02T05:21:20;0.10;99.90
63771;DHT22;60282;43.862;18.430;2023-02-02T05:23:46;0.10;99.90
63771;DHT22;60282;43.862;18.430;2023-02-02T05:26:13;0.00;99.90
63771;DHT22;60282;43.862;18.430;2023-02-02T05:28:40;-0.20;99.90
63771;DHT22;60282;43.862;18.430;2023-02-02T05:31:07;-0.10;99.90
63771;DHT22;60282;43.862;18.430;2023-02-02T05:33:33;-0.10;99.90
63771;DHT22;60282;43.862;18.430;2023-02-02T05:35:58;-0.10;99.90
63771;DHT22;60282;43.862;18.430;2023-02-02T05:38:24;0.00;99.90
63771;DHT22;60282;43.862;18.430;2023-02-02T05:40:50;0.00;99.90
63771;DHT22;60282;43.862;18.430;2023-02-02T05:43:15;0.00;99.90
63771;DHT22;60282;43.862;18.430;2023-02-02T05:45:41;-0.20;99.90
63771;DHT22;60282;43.862;18.430;2023-02-02T05:48:08;-0.30;99.90
63771;DHT22;60282;43.862;18.430;2023-02-02T05:50:34;-0.30;99.90
63771;DHT22;60282;43.862;18.430;2023-02-02T05:52:59;-0.50;99.90
63771;DHT22;60282;43.862;18.430;2023-02-02T05:55:25;-0.60;99.90
63771;DHT22;60282;43.862;18.430;2023-02-02T05:57:54;-0.70;99.90
63771;DHT22;60282;43.862;18.430;2023-02-02T06:00:21;-0.70;99.90
63771;DHT22;60282;43.862;18.430;2023-02-02T06:02:48;-0.50;99.90
63771;DHT22;60282;43.862;18.430;2023-02-02T06:05:13;-0.50;99.90
63771;DHT22;60282;43.862;18.430;2023-02-02T06:07:39;-0.40;99.90
63771;DHT22;60282;43.862;18.430;2023-02-02T06:10:05;-0.40;99.90
63771;DHT22;60282;43.862;18.430;2023-02-02T06:12:30;-0.10;99.90
63771;DHT22;60282;43.862;18.430;2023-02-02T06:14:57;-0.50;99.90
63771;DHT22;60282;43.862;18.430;2023-02-02T06:17:26;-0.50;99.90
63771;DHT22;60282;43.862;18.430;2023-02-02T06:19:51;-0.70;99.90
63771;DHT22;60282;43.862;18.430;2023-02-02T06:22:17;-0.50;99.90
63771;DHT22;60282;43.862;18.430;2023-02-02T06:24:43;-0.40;99.90
63771;DHT22;60282;43.862;18.430;2023-02-02T06:27:08;-0.40;99.90
63771;DHT22;60282;43.862;18.430;2023-02-02T06:29:34;-0.50;99.90
63771;DHT22;60282;43.862;18.430;2023-02-02T06:32:01;-0.20;99.90
63771;DHT22;60282;43.862;18.430;2023-02-02T06:34:27;-0.50;99.90
63771;DHT22;60282;43.862;18.430;2023-02-02T06:36:53;-0.60;99.90
63771;DHT22;60282;43.862;18.430;2023-02-02T06:39:38;1.10;99.90
63771;DHT22;60282;43.862;18.430;2023-02-02T06:42:08;-0.90;99.90
63771;DHT22;60282;43.862;18.430;2023-02-02T06:45:03;-0.50;99.90
63771;DHT22;60282;43.862;18.430;2023-02-02T06:47:35;-0.90;99.90
63771;DHT22;60282;43.862;18.430;2023-02-02T06:50:02;-0.70;99.90
63771;DHT22;60282;43.862;18.430;2023-02-02T06:52:27;-0.80;99.90
63771;DHT22;60282;43.862;18.430;2023-02-02T06:54:53;-0.90;99.90
63771;DHT22;60282;43.862;18.430;2023-02-02T06:57:18;-0.90;99.90
63771;DHT22;60282;43.862;18.430;2023-02-02T06:59:45;-0.80;99.90
63771;DHT22;60282;43.862;18.430;2023-02-02T07:02:11;-0.70;99.90
63771;DHT22;60282;43.862;18.430;2023-02-02T07:04:39;-0.80;99.90
63771;DHT22;60282;43.862;18.430;2023-02-02T07:07:07;-0.70;99.90
63771;DHT22;60282;43.862;18.430;2023-02-02T07:09:33;-0.60;99.90
63771;DHT22;60282;43.862;18.430;2023-02-02T07:11:59;-0.50;99.90
63771;DHT22;60282;43.862;18.430;2023-02-02T07:14:24;-0.50;99.90
63771;DHT22;60282;43.862;18.430;2023-02-02T07:16:51;-0.40;99.90
63771;DHT22;60282;43.862;18.430;2023-02-02T07:19:16;-0.20;99.90
63771;DHT22;60282;43.862;18.430;2023-02-02T07:21:42;0.00;99.90
63771;DHT22;60282;43.862;18.430;2023-02-02T07:24:09;0.10;99.90
63771;DHT22;60282;43.862;18.430;2023-02-02T07:26:35;0.30;99.90
63771;DHT22;60282;43.862;18.430;2023-02-02T07:29:00;0.40;99.90
63771;DHT22;60282;43.862;18.430;2023-02-02T07:31:27;0.30;99.90
63771;DHT22;60282;43.862;18.430;2023-02-02T07:34:02;0.30;99.90
63771;DHT22;60282;43.862;18.430;2023-02-02T07:36:29;1.70;99.90
63771;DHT22;60282;43.862;18.430;2023-02-02T07:38:55;0.40;99.90
63771;DHT22;60282;43.862;18.430;2023-02-02T07:41:22;0.70;99.90
63771;DHT22;60282;43.862;18.430;2023-02-02T07:43:47;0.90;99.90
63771;DHT22;60282;43.862;18.430;2023-02-02T07:46:35;0.80;99.90
63771;DHT22;60282;43.862;18.430;2023-02-02T07:49:10;1.00;99.90
63771;DHT22;60282;43.862;18.430;2023-02-02T07:51:45;2.00;99.90
63771;DHT22;60282;43.862;18.430;2023-02-02T07:54:15;1.10;99.90
63771;DHT22;60282;43.862;18.430;2023-02-02T07:56:49;1.20;99.90
63771;DHT22;60282;43.862;18.430;2023-02-02T07:59:14;1.50;99.90
63771;DHT22;60282;43.862;18.430;2023-02-02T08:01:40;1.60;99.90
63771;DHT22;60282;43.862;18.430;2023-02-02T08:04:07;1.70;99.90
63771;DHT22;60282;43.862;18.430;2023-02-02T08:06:34;1.70;99.90
63771;DHT22;60282;43.862;18.430;2023-02-02T08:09:01;0.50;99.90
63771;DHT22;60282;43.862;18.430;2023-02-02T08:11:27;2.00;99.90
63771;DHT22;60282;43.862;18.430;2023-02-02T08:13:56;1.90;99.90
63771;DHT22;60282;43.862;18.430;2023-02-02T08:16:45;1.70;99.90
63771;DHT22;60282;43.862;18.430;2023-02-02T08:19:11;1.60;99.90
63771;DHT22;60282;43.862;18.430;2023-02-02T08:21:37;1.60;99.90
63771;DHT22;60282;43.862;18.430;2023-02-02T08:24:03;1.80;99.90
63771;DHT22;60282;43.862;18.430;2023-02-02T08:26:55;2.00;99.90
63771;DHT22;60282;43.862;18.430;2023-02-02T08:29:40;2.30;99.90
63771;DHT22;60282;43.862;18.430;2023-02-02T08:32:06;2.60;99.90
63771;DHT22;60282;43.862;18.430;2023-02-02T08:34:31;2.90;99.90
63771;DHT22;60282;43.862;18.430;2023-02-02T08:37:17;-0.10;99.90
63771;DHT22;60282;43.862;18.430;2023-02-02T08:39:43;3.20;99.90
63771;DHT22;60282;43.862;18.430;2023-02-02T08:42:08;3.40;99.90
63771;DHT22;60282;43.862;18.430;2023-02-02T08:44:34;3.40;99.90
63771;DHT22;60282;43.862;18.430;2023-02-02T08:46:59;3.40;99.90
63771;DHT22;60282;43.862;18.430;2023-02-02T08:49:28;3.40;99.90
63771;DHT22;60282;43.862;18.430;2023-02-02T08:51:54;3.50;99.90
63771;DHT22;60282;43.862;18.430;2023-02-02T08:54:20;3.70;99.90
63771;DHT22;60282;43.862;18.430;2023-02-02T08:56:46;3.70;99.90
63771;DHT22;60282;43.862;18.430;2023-02-02T08:59:11;4.00;99.90
63771;DHT22;60282;43.862;18.430;2023-02-02T09:01:41;4.00;99.90
63771;DHT22;60282;43.862;18.430;2023-02-02T09:04:28;4.20;99.90
63771;DHT22;60282;43.862;18.430;2023-02-02T09:06:55;4.50;99.90
63771;DHT22;60282;43.862;18.430;2023-02-02T09:09:25;5.40;99.90
63771;DHT22;60282;43.862;18.430;2023-02-02T09:12:11;5.10;99.90
63771;DHT22;60282;43.862;18.430;2023-02-02T09:14:38;5.40;99.90
63771;DHT22;60282;43.862;18.430;2023-02-02T09:17:08;5.50;99.90
63771;DHT22;60282;43.862;18.430;2023-02-02T09:19:35;5.60;99.90
63771;DHT22;60282;43.862;18.430;2023-02-02T09:22:02;5.60;99.90
63771;DHT22;60282;43.862;18.430;2023-02-02T09:24:29;5.70;99.90
63771;DHT22;60282;43.862;18.430;2023-02-02T09:26:54;5.80;99.90
63771;DHT22;60282;43.862;18.430;2023-02-02T09:29:20;6.00;99.90
63771;DHT22;60282;43.862;18.430;2023-02-02T09:31:50;6.20;99.90
63771;DHT22;60282;43.862;18.430;2023-02-02T09:34:21;6.50;99.90
63771;DHT22;60282;43.862;18.430;2023-02-02T09:36:47;6.70;99.90
63771;DHT22;60282;43.862;18.430;2023-02-02T09:39:13;6.90;99.90
63771;DHT22;60282;43.862;18.430;2023-02-02T09:47:04;7.50;99.90
63771;DHT22;60282;43.862;18.430;2023-02-02T09:49:34;7.70;99.90
63771;DHT22;60282;43.862;18.430;2023-02-02T09:52:08;8.00;99.90
63771;DHT22;60282;43.862;18.430;2023-02-02T09:54:46;8.10;99.90
63771;DHT22;60282;43.862;18.430;2023-02-02T09:57:23;8.30;99.90
63771;DHT22;60282;43.862;18.430;2023-02-02T09:59:55;8.50;99.90
63771;DHT22;60282;43.862;18.430;2023-02-02T10:02:32;8.60;99.90
63771;DHT22;60282;43.862;18.430;2023-02-02T10:05:05;8.50;99.90
63771;DHT22;60282;43.862;18.430;2023-02-02T10:07:36;8.50;99.90
63771;DHT22;60282;43.862;18.430;2023-02-02T10:10:11;8.60;99.90
63771;DHT22;60282;43.862;18.430;2023-02-02T10:12:51;7.40;99.90
63771;DHT22;60282;43.862;18.430;2023-02-02T10:18:10;8.90;99.90
63771;DHT22;60282;43.862;18.430;2023-02-02T10:23:47;9.80;99.90
63771;DHT22;60282;43.862;18.430;2023-02-02T10:26:39;10.10;99.90
63771;DHT22;60282;43.862;18.430;2023-02-02T10:34:23;10.00;99.90
63771;DHT22;60282;43.862;18.430;2023-02-02T10:45:16;9.50;99.90
63771;DHT22;60282;43.862;18.430;2023-02-02T10:47:47;9.40;99.90
63771;DHT22;60282;43.862;18.430;2023-02-02T10:50:46;9.50;99.90
63771;DHT22;60282;43.862;18.430;2023-02-02T10:53:13;9.70;99.90
63771;DHT22;60282;43.862;18.430;2023-02-02T10:55:49;9.50;99.90
63771;DHT22;60282;43.862;18.430;2023-02-02T10:58:19;9.60;99.90
63771;DHT22;60282;43.862;18.430;2023-02-02T11:00:58;9.90;99.90
63771;DHT22;60282;43.862;18.430;2023-02-02T11:03:30;10.00;99.90
63771;DHT22;60282;43.862;18.430;2023-02-02T11:06:36;9.90;99.80
63771;DHT22;60282;43.862;18.430;2023-02-02T11:09:14;10.30;97.00
63771;DHT22;60282;43.862;18.430;2023-02-02T11:11:40;10.50;97.20
63771;DHT22;60282;43.862;18.430;2023-02-02T11:16:33;10.60;97.60
63771;DHT22;60282;43.862;18.430;2023-02-02T11:19:20;10.70;98.70
63771;DHT22;60282;43.862;18.430;2023-02-02T11:21:48;10.70;96.40
63771;DHT22;60282;43.862;18.430;2023-02-02T11:24:31;10.50;96.00
63771;DHT22;60282;43.862;18.430;2023-02-02T11:27:16;10.50;96.90
63771;DHT22;60282;43.862;18.430;2023-02-02T11:29:46;11.50;94.40
63771;DHT22;60282;43.862;18.430;2023-02-02T11:32:19;10.60;94.00
63771;DHT22;60282;43.862;18.430;2023-02-02T11:34:49;10.60;92.90
63771;DHT22;60282;43.862;18.430;2023-02-02T11:37:37;10.40;94.10
63771;DHT22;60282;43.862;18.430;2023-02-02T11:40:39;10.70;95.00
63771;DHT22;60282;43.862;18.430;2023-02-02T11:43:17;9.30;93.60
63771;DHT22;60282;43.862;18.430;2023-02-02T11:45:43;10.80;93.20
63771;DHT22;60282;43.862;18.430;2023-02-02T11:48:14;11.30;93.60
63771;DHT22;60282;43.862;18.430;2023-02-02T11:50:52;9.10;94.50
63771;DHT22;60282;43.862;18.430;2023-02-02T11:56:16;11.10;95.10
63771;DHT22;60282;43.862;18.430;2023-02-02T12:01:21;10.90;97.60
63771;DHT22;60282;43.862;18.430;2023-02-02T12:03:48;10.80;97.80
63771;DHT22;60282;43.862;18.430;2023-02-02T12:09:14;10.90;97.20
63771;DHT22;60282;43.862;18.430;2023-02-02T12:11:56;11.10;97.40
63771;DHT22;60282;43.862;18.430;2023-02-02T12:17:19;11.10;98.30
63771;DHT22;60282;43.862;18.430;2023-02-02T12:20:04;11.20;96.70
63771;DHT22;60282;43.862;18.430;2023-02-02T12:25:44;11.30;95.50
63771;DHT22;60282;43.862;18.430;2023-02-02T12:33:32;11.10;95.20
63771;DHT22;60282;43.862;18.430;2023-02-02T12:36:09;11.20;96.60
63771;DHT22;60282;43.862;18.430;2023-02-02T12:42:30;11.20;96.20
63771;DHT22;60282;43.862;18.430;2023-02-02T12:52:15;11.40;94.30
63771;DHT22;60282;43.862;18.430;2023-02-02T12:55:01;11.30;94.00
63771;DHT22;60282;43.862;18.430;2023-02-02T12:57:39;11.50;90.80
63771;DHT22;60282;43.862;18.430;2023-02-02T13:08:02;12.20;90.00
63771;DHT22;60282;43.862;18.430;2023-02-02T13:10:37;12.50;88.00
63771;DHT22;60282;43.862;18.430;2023-02-02T13:15:38;12.40;74.90
63771;DHT22;60282;43.862;18.430;2023-02-02T13:18:07;12.50;72.70
63771;DHT22;60282;43.862;18.430;2023-02-02T13:23:11;12.40;67.20
63771;DHT22;60282;43.862;18.430;2023-02-02T13:25:42;11.80;68.10
63771;DHT22;60282;43.862;18.430;2023-02-02T13:28:10;11.50;71.50
63771;DHT22;60282;43.862;18.430;2023-02-02T13:30:41;11.00;74.00
63771;DHT22;60282;43.862;18.430;2023-02-02T13:33:12;10.80;79.30
63771;DHT22;60282;43.862;18.430;2023-02-02T13:35:50;10.70;81.80
63771;DHT22;60282;43.862;18.430;2023-02-02T13:38:24;10.40;84.30
63771;DHT22;60282;43.862;18.430;2023-02-02T13:41:01;10.60;87.20
63771;DHT22;60282;43.862;18.430;2023-02-02T13:43:37;10.10;90.80
63771;DHT22;60282;43.862;18.430;2023-02-02T13:48:49;9.90;93.30
63771;DHT22;60282;43.862;18.430;2023-02-02T14:01:59;9.70;86.50
63771;DHT22;60282;43.862;18.430;2023-02-02T14:04:34;8.60;89.40
63771;DHT22;60282;43.862;18.430;2023-02-02T14:07:34;9.50;89.70
63771;DHT22;60282;43.862;18.430;2023-02-02T14:10:03;9.60;91.30
63771;DHT22;60282;43.862;18.430;2023-02-02T14:12:38;9.50;92.60
63771;DHT22;60282;43.862;18.430;2023-02-02T14:15:10;9.50;92.30
63771;DHT22;60282;43.862;18.430;2023-02-02T14:20:52;9.50;93.60
63771;DHT22;60282;43.862;18.430;2023-02-02T14:22:53;9.50;94.50
63771;DHT22;60282;43.862;18.430;2023-02-02T14:28:03;9.40;94.70
63771;DHT22;60282;43.862;18.430;2023-02-02T14:30:37;9.40;94.70
63771;DHT22;60282;43.862;18.430;2023-02-02T14:33:38;9.40;95.20
63771;DHT22;60282;43.862;18.430;2023-02-02T14:35:57;9.40;96.00
63771;DHT22;60282;43.862;18.430;2023-02-02T14:38:26;9.30;96.00
63771;DHT22;60282;43.862;18.430;2023-02-02T14:41:17;9.20;97.60
63771;DHT22;60282;43.862;18.430;2023-02-02T14:44:04;5.70;96.60
63771;DHT22;60282;43.862;18.430;2023-02-02T14:46:35;9.50;99.90
63771;DHT22;60282;43.862;18.430;2023-02-02T14:51:30;9.30;99.90
63771;DHT22;60282;43.862;18.430;2023-02-02T14:54:14;7.30;99.90
63771;DHT22;60282;43.862;18.430;2023-02-02T14:56:57;9.30;99.90
63771;DHT22;60282;43.862;18.430;2023-02-02T14:59:38;9.20;99.90
63771;DHT22;60282;43.862;18.430;2023-02-02T15:02:21;9.00;99.90
63771;DHT22;60282;43.862;18.430;2023-02-02T15:04:48;9.00;99.90
63771;DHT22;60282;43.862;18.430;2023-02-02T15:09:52;8.90;99.90
63771;DHT22;60282;43.862;18.430;2023-02-02T15:12:22;8.70;99.90
63771;DHT22;60282;43.862;18.430;2023-02-02T15:15:01;8.60;99.90
63771;DHT22;60282;43.862;18.430;2023-02-02T15:20:14;8.50;99.90
63771;DHT22;60282;43.862;18.430;2023-02-02T15:25:24;8.10;99.90
63771;DHT22;60282;43.862;18.430;2023-02-02T15:27:55;8.30;99.90
63771;DHT22;60282;43.862;18.430;2023-02-02T15:30:22;8.20;99.90
63771;DHT22;60282;43.862;18.430;2023-02-02T15:32:50;8.10;99.90
63771;DHT22;60282;43.862;18.430;2023-02-02T15:35:25;8.10;99.90
63771;DHT22;60282;43.862;18.430;2023-02-02T15:37:57;8.00;99.90
63771;DHT22;60282;43.862;18.430;2023-02-02T15:40:25;8.00;99.90
63771;DHT22;60282;43.862;18.430;2023-02-02T15:43:01;7.60;99.90
63771;DHT22;60282;43.862;18.430;2023-02-02T15:46:09;7.80;99.90
63771;DHT22;60282;43.862;18.430;2023-02-02T15:48:35;7.70;99.90
63771;DHT22;60282;43.862;18.430;2023-02-02T15:51:03;7.70;99.90
63771;DHT22;60282;43.862;18.430;2023-02-02T15:53:49;7.40;99.90
63771;DHT22;60282;43.862;18.430;2023-02-02T15:58:53;7.30;99.90
63771;DHT22;60282;43.862;18.430;2023-02-02T16:01:43;6.80;99.90
63771;DHT22;60282;43.862;18.430;2023-02-02T16:04:15;7.20;99.90
63771;DHT22;60282;43.862;18.430;2023-02-02T16:06:49;7.00;99.90
63771;DHT22;60282;43.862;18.430;2023-02-02T16:09:30;7.00;99.90
63771;DHT22;60282;43.862;18.430;2023-02-02T16:11:57;5.40;99.90
63771;DHT22;60282;43.862;18.430;2023-02-02T16:14:23;6.80;99.90
63771;DHT22;60282;43.862;18.430;2023-02-02T16:16:49;6.60;99.90
63771;DHT22;60282;43.862;18.430;2023-02-02T16:21:52;6.50;99.90
63771;DHT22;60282;43.862;18.430;2023-02-02T16:24:31;6.40;99.90
63771;DHT22;60282;43.862;18.430;2023-02-02T16:27:06;6.30;99.90
63771;DHT22;60282;43.862;18.430;2023-02-02T16:29:34;6.20;99.90
63771;DHT22;60282;43.862;18.430;2023-02-02T16:32:00;6.30;99.90
63771;DHT22;60282;43.862;18.430;2023-02-02T16:37:20;6.20;99.90
63771;DHT22;60282;43.862;18.430;2023-02-02T16:39:47;6.10;99.90
63771;DHT22;60282;43.862;18.430;2023-02-02T16:42:29;5.90;99.90
63771;DHT22;60282;43.862;18.430;2023-02-02T16:44:58;5.80;99.90
63771;DHT22;60282;43.862;18.430;2023-02-02T16:50:18;5.70;99.90
63771;DHT22;60282;43.862;18.430;2023-02-02T16:52:51;5.60;99.90
63771;DHT22;60282;43.862;18.430;2023-02-02T16:55:20;5.50;99.90
63771;DHT22;60282;43.862;18.430;2023-02-02T16:57:55;5.40;99.90
63771;DHT22;60282;43.862;18.430;2023-02-02T17:00:28;5.30;99.90
63771;DHT22;60282;43.862;18.430;2023-02-02T17:03:03;5.30;99.90
63771;DHT22;60282;43.862;18.430;2023-02-02T17:05:45;5.30;99.90
63771;DHT22;60282;43.862;18.430;2023-02-02T17:08:12;7.70;99.90
63771;DHT22;60282;43.862;18.430;2023-02-02T17:10:41;5.20;99.90
63771;DHT22;60282;43.862;18.430;2023-02-02T17:13:36;5.20;99.90
63771;DHT22;60282;43.862;18.430;2023-02-02T17:16:02;5.10;99.90
63771;DHT22;60282;43.862;18.430;2023-02-02T17:18:28;5.10;99.90
63771;DHT22;60282;43.862;18.430;2023-02-02T17:20:56;5.00;99.90
63771;DHT22;60282;43.862;18.430;2023-02-02T17:23:32;1.70;99.90
63771;DHT22;60282;43.862;18.430;2023-02-02T17:26:21;5.00;99.90
63771;DHT22;60282;43.862;18.430;2023-02-02T17:28:49;5.70;99.90
63771;DHT22;60282;43.862;18.430;2023-02-02T17:31:27;4.80;99.90
63771;DHT22;60282;43.862;18.430;2023-02-02T17:33:54;1.40;99.90
63771;DHT22;60282;43.862;18.430;2023-02-02T17:36:28;6.80;99.90
63771;DHT22;60282;43.862;18.430;2023-02-02T17:38:54;4.80;99.90
63771;DHT22;60282;43.862;18.430;2023-02-02T17:41:22;4.80;99.90
63771;DHT22;60282;43.862;18.430;2023-02-02T17:44:05;4.80;99.90
63771;DHT22;60282;43.862;18.430;2023-02-02T17:46:33;4.80;99.90
63771;DHT22;60282;43.862;18.430;2023-02-02T17:49:05;4.70;99.90
63771;DHT22;60282;43.862;18.430;2023-02-02T17:51:38;4.70;99.90
63771;DHT22;60282;43.862;18.430;2023-02-02T17:54:13;4.60;99.90
63771;DHT22;60282;43.862;18.430;2023-02-02T17:56:39;4.60;99.90
63771;DHT22;60282;43.862;18.430;2023-02-02T17:59:06;4.50;99.90
63771;DHT22;60282;43.862;18.430;2023-02-02T18:01:32;5.10;99.90
63771;DHT22;60282;43.862;18.430;2023-02-02T18:03:58;4.60;99.90
63771;DHT22;60282;43.862;18.430;2023-02-02T18:06:25;4.50;99.90
63771;DHT22;60282;43.862;18.430;2023-02-02T18:08:58;4.60;99.90
63771;DHT22;60282;43.862;18.430;2023-02-02T18:11:26;4.60;99.90
63771;DHT22;60282;43.862;18.430;2023-02-02T18:13:51;4.50;99.90
63771;DHT22;60282;43.862;18.430;2023-02-02T18:16:17;4.60;99.90
63771;DHT22;60282;43.862;18.430;2023-02-02T18:18:45;4.50;99.90
63771;DHT22;60282;43.862;18.430;2023-02-02T18:21:11;4.50;99.90
63771;DHT22;60282;43.862;18.430;2023-02-02T18:23:45;5.80;99.90
63771;DHT22;60282;43.862;18.430;2023-02-02T18:26:17;6.90;99.90
63771;DHT22;60282;43.862;18.430;2023-02-02T18:28:50;4.40;99.90
63771;DHT22;60282;43.862;18.430;2023-02-02T18:31:18;4.40;99.90
63771;DHT22;60282;43.862;18.430;2023-02-02T18:33:44;4.30;99.90
63771;DHT22;60282;43.862;18.430;2023-02-02T18:36:11;4.30;99.90
63771;DHT22;60282;43.862;18.430;2023-02-02T18:39:01;4.30;99.90
63771;DHT22;60282;43.862;18.430;2023-02-02T18:41:51;4.30;99.90
63771;DHT22;60282;43.862;18.430;2023-02-02T18:44:43;5.20;99.90
63771;DHT22;60282;43.862;18.430;2023-02-02T18:47:09;4.20;99.90